Terminal Aerodrome Forecast
Issued by NWS

Home | Current Version | Previous Version | Text Only | Print | Product List | Glossary On
Versions: 1 2 3 4 5 6 7 8 9 10 11 12 13 14 15 16 17 18 19 20 21 22 23 24 25 26 27 28 29 30 31 32 33 34 35 36 37 38
000
FTAK31 PANC 290741 AAA
TAFAIL
TAF AMD
PAIL 290741Z 2908/3006 23008KT P6SM SCT022 OVC035
     FM290800 34009KT P6SM -SHRA SCT025 BKN050
     FM291800 36007KT P6SM SCT050=

USA.gov is the U.S. government's official web portal to all federal, state and local government web resources and services.